الصفحة الرئيسية
METAR-TAF:

METAR-TAF

مطار :

مطار الأميرة جوليانا الدولي

Sint Maarten, جزر الأنتيل الهولندية

دائرة عرض: 18-03N, خط طول: 063-07W, ارتفاع: 4 متر

مراقبة الطقس الحالي

تاريخ ووقت الإصدار 55 دقيقة قبل الساعة 04:00UTC
ريح 8 عقدة من الشرق, الاتجاه يتراوح بين الشرق/الشمال الشرقي و الجنوب الشرقي
درجة الحرارة 28°درجة مئوية
الرطوبة 79%
ضغط 1019 hPa
الرؤية 10 كم أو أكثر
غيوم قليلة على ارتفاع 1800 قدم

METAR: TNCM 180400Z 10008KT 070V140 9999 FEW018 28/24 Q1019 RMK A3011

زمن: 00:55 (04:55 UTC)

توقعات

تاريخ ووقت الإصدار 5ساعات و 16 دقيقة قبل الساعة 23:39UTC
التوقعات صالحة من18 الساعة 00 UTC إلى 18 الساعة 24 UTC
ريح 8 عقدة من الشرق
الرؤية: 10 كم
غيوم متفرقة على ارتفاع 1800 قدم
من 18 الساعة 1500 UTC
ريح 10 عقدة من الشرق/الجنوب الشرقي
الرؤية: 10 كم
غيوم قليلة على ارتفاع 2000 قدم

TAF: TNCM 172339Z 1800/1824 10008KT P6SM SCT018 FM181500 11010KT P6SM FEW020

أرصاد الطقس والتوقعات من أكثر من 4000 مطار (تقارير الطقس للمطار METAR والتنبؤ بالطقس بالمطارTAF).

المحطات المتاحة هي النقط الصفراء والحمراء على الخريطة.

حرك المؤشر فوق النقطة لمعرفة اسم المحطة.

ثم انقر لمعرفة أرصاد وتوقعات الطقس.

لتغيير الخارطة: اضغط على الأزرار الخضراء مع رمز الصليب الأسود للتكبير. على الزر الأخضر مع شرطة للتصغير، أو على الأسهم الخضراء للخرائط المجاورة.


METAR-TAF: